Time;durP1;ratioP1;P1;durP2;ratioP2;P2;SDS_P1;SDS_P2;PMS_P1;PMS_P2;Temp;Humidity;BMP_temperature;BMP_pressure;BME280_temperature;BME280_humidity;BME280_pressure;Samples;Min_cycle;Max_cycle;Signal;HPM_P1;HPM_P2
2022/05/29 00:02:14;;;;;;;;;;;;;;;16.33;41.63;99409.78;4349647;32;33511;-85
2022/05/29 00:04:42;;;;;;;;;;;;;;;16.29;41.85;99403.84;4347344;32;33932;-84
2022/05/29 00:07:12;;;;;;;;;;;;;;;16.33;41.49;99402.81;4346391;32;34928;-83
2022/05/29 00:09:41;;;;;;;;;;;;;;;16.15;42.47;99396.56;4352424;32;32991;-84
2022/05/29 00:12:10;;;;;;;;;;;;;;;16.15;42.17;99395.72;4358743;32;34927;-85
2022/05/29 00:14:39;;;;;;;;;;;;;;;16.31;41.30;99402.03;4357235;32;33972;-84
2022/05/29 00:17:09;;;;;;;;;;;;;;;16.25;41.93;99393.56;4356888;32;34098;-84
2022/05/29 00:19:38;;;;;;;;;;;;;;;16.19;41.79;99392.91;4367050;32;33248;-84
2022/05/29 00:22:07;;;;;;;;;;;;;;;16.23;42.03;99388.38;4354276;32;33867;-83
2022/05/29 00:24:36;;;;;;;;;;;;;;;16.08;42.38;99384.63;4359418;32;34348;-84
2022/05/29 00:27:05;;;;;;;;;;;;;;;16.09;42.21;99381.13;4346758;32;34384;-84
2022/05/29 00:29:35;;;;;;;;;;;;;;;16.32;40.88;99389.78;4351224;32;34760;-83
2022/05/29 00:32:05;;;;;;;;;;;;;;;16.23;40.84;99390.16;4356538;32;33264;-85
2022/05/29 00:34:35;;;;;;;;;;;;;;;16.24;40.98;99384.88;4347118;32;34668;-84
2022/05/29 00:37:04;;;;;;;;;;;;;;;16.20;41.17;99384.13;4361485;32;33778;-85
2022/05/29 00:39:34;;;;;;;;;;;;;;;16.15;40.50;99375.63;4357020;32;33253;-84
2022/05/29 00:42:03;;;;;;;;;;;;;;;16.21;41.12;99375.37;4347161;32;34208;-84
2022/05/29 00:44:32;;;;;;;;;;;;;;;16.03;41.50;99370.88;4356804;32;34584;-84
2022/05/29 00:47:02;;;;;;;;;;;;;;;16.30;41.00;99373.28;4356439;32;34691;-84
2022/05/29 00:49:31;;;;;;;;;;;;;;;16.13;41.45;99371.38;4362359;32;33407;-85
2022/05/29 00:52:02;;;;;;;;;;;;;;;16.10;40.47;99359.25;4356258;32;34052;-84
2022/05/29 00:54:31;;;;;;;;;;;;;;;16.16;40.65;99363.38;4357069;32;33972;-84
2022/05/29 00:57:01;;;;;;;;;;;;;;;15.87;41.74;99357.56;4356782;32;34185;-85
2022/05/29 00:59:30;;;;;;;;;;;;;;;16.09;41.42;99348.84;4353191;32;33383;-85
2022/05/29 01:01:58;;;;;;;;;;;;;;;16.07;41.91;99350.66;4347543;32;34857;-84
2022/05/29 01:04:27;;;;;;;;;;;;;;;16.11;41.39;99353.09;4354500;32;35182;-85
2022/05/29 01:06:55;;;;;;;;;;;;;;;16.03;41.82;99349.94;4356727;32;33680;-85
2022/05/29 01:09:25;;;;;;;;;;;;;;;15.99;42.00;99344.00;4356514;32;33568;-85
2022/05/29 01:12:01;;;;;;;;;;;;;;;15.83;42.44;99340.31;4356545;32;35700;-85
2022/05/29 01:14:32;;;;;;;;;;;;;;;15.83;42.89;99344.69;4356626;32;34879;-84
2022/05/29 01:17:04;;;;;;;;;;;;;;;16.00;42.28;99340.47;4361836;32;34536;-85
2022/05/29 01:19:41;;;;;;;;;;;;;;;15.98;42.93;99342.28;4356637;32;34320;-85
2022/05/29 01:22:32;;;;;;;;;;;;;;;15.93;43.41;99346.03;4356469;32;34219;-86
2022/05/29 01:25:16;;;;;;;;;;;;;;;15.93;43.59;99348.62;4345061;32;34187;-84
2022/05/29 01:27:46;;;;;;;;;;;;;;;15.99;43.64;99344.00;4348379;32;34103;-85
2022/05/29 01:30:17;;;;;;;;;;;;;;;15.92;43.88;99344.28;4350952;32;33537;-84
2022/05/29 01:32:51;;;;;;;;;;;;;;;15.99;43.33;99345.75;4359458;32;34028;-85
2022/05/29 01:35:23;;;;;;;;;;;;;;;16.02;43.50;99347.38;4351246;32;34926;-84
2022/05/29 01:37:52;;;;;;;;;;;;;;;15.82;44.10;99345.59;4355940;32;33592;-84
2022/05/29 01:40:25;;;;;;;;;;;;;;;15.71;44.54;99351.25;4354480;32;33283;-85
2022/05/29 01:42:57;;;;;;;;;;;;;;;15.75;44.66;99347.59;4356467;32;34849;-83
2022/05/29 01:45:30;;;;;;;;;;;;;;;15.83;44.35;99355.16;4356379;32;34052;-85
2022/05/29 01:48:00;;;;;;;;;;;;;;;15.62;44.66;99344.59;4358428;32;34480;-84
2022/05/29 01:50:29;;;;;;;;;;;;;;;15.66;43.95;99348.78;4356363;32;33180;-84
2022/05/29 01:52:58;;;;;;;;;;;;;;;15.65;44.36;99349.69;4353093;32;34047;-85
2022/05/29 01:55:28;;;;;;;;;;;;;;;15.77;43.98;99354.47;4347135;32;33919;-84
2022/05/29 01:57:59;;;;;;;;;;;;;;;15.81;43.60;99349.97;4355503;32;33737;-83
2022/05/29 02:00:29;;;;;;;;;;;;;;;15.82;43.19;99348.19;4353488;32;33101;-84
2022/05/29 02:03:07;;;;;;;;;;;;;;;15.83;42.99;99342.94;4340690;32;32881;-83
2022/05/29 02:05:36;;;;;;;;;;;;;;;15.73;43.33;99341.59;4342110;33;34348;-83
2022/05/29 02:08:06;;;;;;;;;;;;;;;15.89;43.83;99339.19;4342159;33;34283;-84
2022/05/29 02:10:36;;;;;;;;;;;;;;;15.81;44.50;99343.91;4342487;32;34258;-83
2022/05/29 02:13:06;;;;;;;;;;;;;;;15.85;44.90;99333.25;4356447;32;33690;-83
2022/05/29 02:15:39;;;;;;;;;;;;;;;15.78;45.16;99337.03;4355604;32;34597;-83
2022/05/29 02:18:09;;;;;;;;;;;;;;;15.85;45.27;99335.88;4357446;32;34306;-85
2022/05/29 02:20:39;;;;;;;;;;;;;;;15.84;44.99;99331.53;4356839;32;32838;-84
2022/05/29 02:23:09;;;;;;;;;;;;;;;15.75;44.98;99324.94;4351115;32;34170;-83
2022/05/29 02:25:37;;;;;;;;;;;;;;;15.95;43.47;99331.97;4342357;32;34309;-83
2022/05/29 02:28:06;;;;;;;;;;;;;;;15.82;43.70;99327.28;4346944;32;34151;-84
2022/05/29 02:30:40;;;;;;;;;;;;;;;15.88;43.12;99322.66;4353900;32;33911;-83
2022/05/29 02:33:09;;;;;;;;;;;;;;;16.06;41.81;99326.28;4356905;32;34159;-84
2022/05/29 02:35:39;;;;;;;;;;;;;;;15.91;43.11;99329.53;4356897;32;34106;-84
2022/05/29 02:38:07;;;;;;;;;;;;;;;15.95;43.02;99326.72;4356937;32;34501;-85
2022/05/29 02:40:39;;;;;;;;;;;;;;;15.59;43.77;99326.41;4355630;32;33248;-83
2022/05/29 02:43:12;;;;;;;;;;;;;;;15.81;44.25;99313.34;4356849;32;37592;-83
2022/05/29 02:45:43;;;;;;;;;;;;;;;15.87;42.65;99317.47;4356804;32;34218;-83
2022/05/29 02:48:16;;;;;;;;;;;;;;;15.76;42.84;99315.31;4342090;33;33944;-83
2022/05/29 02:50:45;;;;;;;;;;;;;;;15.71;44.27;99312.03;4342029;33;33276;-83
2022/05/29 02:53:14;;;;;;;;;;;;;;;15.72;43.49;99306.72;4361596;32;33611;-85
2022/05/29 02:55:43;;;;;;;;;;;;;;;15.70;43.87;99305.94;4362359;32;33913;-84
2022/05/29 02:58:18;;;;;;;;;;;;;;;15.70;44.09;99305.94;4356543;32;34718;-83
2022/05/29 03:00:51;;;;;;;;;;;;;;;15.65;44.42;99310.47;4355919;32;33632;-84
2022/05/29 03:03:22;;;;;;;;;;;;;;;15.41;45.49;99314.91;4357456;32;34714;-84
2022/05/29 03:05:53;;;;;;;;;;;;;;;15.46;45.87;99307.72;4357147;32;35038;-85
2022/05/29 03:08:29;;;;;;;;;;;;;;;15.43;46.04;99297.41;4362028;32;33520;-84
2022/05/29 03:10:59;;;;;;;;;;;;;;;15.39;46.66;99301.06;4362082;32;33513;-84
2022/05/29 03:13:28;;;;;;;;;;;;;;;15.34;46.93;99295.13;4356239;32;34381;-85
2022/05/29 03:16:00;;;;;;;;;;;;;;;15.46;46.56;99297.25;4356906;32;34737;-84
2022/05/29 03:18:34;;;;;;;;;;;;;;;15.44;46.31;99296.50;4356349;32;34661;-83
2022/05/29 03:21:05;;;;;;;;;;;;;;;15.46;46.86;99286.81;4357237;32;33579;-84
2022/05/29 03:23:37;;;;;;;;;;;;;;;15.47;46.09;99288.53;4354273;32;33808;-85
2022/05/29 03:26:07;;;;;;;;;;;;;;;15.55;46.40;99283.00;4356279;32;33847;-85
2022/05/29 03:28:40;;;;;;;;;;;;;;;15.52;46.31;99286.59;4356002;32;34786;-85
2022/05/29 03:31:11;;;;;;;;;;;;;;;15.64;46.37;99276.56;4348502;32;33046;-84
2022/05/29 03:33:46;;;;;;;;;;;;;;;15.62;45.86;99281.00;4349229;32;35077;-85
2022/05/29 03:36:15;;;;;;;;;;;;;;;15.62;45.79;99287.06;4361729;32;34286;-83
2022/05/29 03:38:43;;;;;;;;;;;;;;;15.57;46.17;99283.78;4360465;32;34047;-84
2022/05/29 03:41:13;;;;;;;;;;;;;;;15.53;46.14;99280.44;4355026;32;33365;-83
2022/05/29 03:43:43;;;;;;;;;;;;;;;15.72;45.61;99275.34;4343229;33;33616;-85
2022/05/29 03:46:18;;;;;;;;;;;;;;;15.59;45.55;99276.75;4343197;33;33983;-84
2022/05/29 03:48:47;;;;;;;;;;;;;;;15.64;45.17;99285.25;4343493;33;34987;-85
2022/05/29 03:51:15;;;;;;;;;;;;;;;15.70;44.99;99285.00;4348607;33;34294;-85
2022/05/29 03:53:45;;;;;;;;;;;;;;;15.76;44.74;99287.38;4343896;32;34530;-84
2022/05/29 03:56:13;;;;;;;;;;;;;;;15.68;44.65;99292.06;4343627;32;34139;-84
2022/05/29 03:58:41;;;;;;;;;;;;;;;15.77;44.05;99289.06;4357501;32;34048;-84
2022/05/29 04:01:10;;;;;;;;;;;;;;;15.67;44.35;99292.97;4356626;32;33263;-85
2022/05/29 04:03:40;;;;;;;;;;;;;;;15.81;43.61;99286.34;4361039;32;34001;-84
2022/05/29 04:06:09;;;;;;;;;;;;;;;15.71;43.46;99286.72;4357857;32;33856;-84
2022/05/29 04:14:10;;;;;;;;;;;;;;;15.99;43.19;99280.34;4343382;32;34460;-85
2022/05/29 04:16:39;;;;;;;;;;;;;;;16.13;41.11;99278.00;4343132;33;33309;-85
2022/05/29 04:19:09;;;;;;;;;;;;;;;16.26;41.72;99282.69;4348580;33;34905;-84
2022/05/29 04:21:37;;;;;;;;;;;;;;;16.29;39.58;99278.19;4344685;32;34390;-84
2022/05/29 04:24:06;;;;;;;;;;;;;;;16.13;40.21;99275.38;4354536;32;34049;-85
2022/05/29 04:26:36;;;;;;;;;;;;;;;16.32;41.37;99272.81;4357723;32;34162;-84
2022/05/29 04:29:05;;;;;;;;;;;;;;;16.23;41.83;99277.63;4356102;32;32005;-85
2022/05/29 04:31:34;;;;;;;;;;;;;;;16.49;41.71;99274.72;4356684;32;32373;-85
2022/05/29 04:34:01;;;;;;;;;;;;;;;16.45;41.85;99277.53;4348336;33;34387;-85
2022/05/29 04:36:31;;;;;;;;;;;;;;;16.52;42.51;99271.09;4342849;33;34209;-85
2022/05/29 04:39:00;;;;;;;;;;;;;;;16.64;42.08;99271.41;4341704;33;32590;-84
2022/05/29 04:41:28;;;;;;;;;;;;;;;16.55;41.52;99273.56;4341082;33;32616;-84
2022/05/29 04:43:57;;;;;;;;;;;;;;;16.54;40.87;99272.72;4342663;33;33969;-84
2022/05/29 04:46:26;;;;;;;;;;;;;;;16.70;41.19;99272.06;4359081;32;34165;-85
2022/05/29 04:48:54;;;;;;;;;;;;;;;16.77;41.43;99276.13;4357842;32;33726;-84
2022/05/29 04:51:23;;;;;;;;;;;;;;;16.89;41.62;99279.94;4356779;32;33240;-84
2022/05/29 04:53:53;;;;;;;;;;;;;;;16.91;41.44;99285.97;4359929;32;34925;-84
2022/05/29 04:56:21;;;;;;;;;;;;;;;16.83;41.43;99278.47;4357666;32;34347;-84
2022/05/29 04:58:50;;;;;;;;;;;;;;;16.81;41.61;99281.16;4362830;32;34123;-85
2022/05/29 05:01:18;;;;;;;;;;;;;;;17.06;41.87;99280.91;4356242;32;33986;-84
2022/05/29 05:03:47;;;;;;;;;;;;;;;16.85;42.25;99290.59;4348332;32;34186;-86
2022/05/29 05:06:16;;;;;;;;;;;;;;;17.04;42.14;99285.34;4357357;32;34283;-87
2022/05/29 05:08:45;;;;;;;;;;;;;;;16.80;41.92;99276.84;4357266;32;34026;-86
2022/05/29 05:11:15;;;;;;;;;;;;;;;16.86;40.92;99280.94;4362301;32;32882;-86
2022/05/29 05:13:44;;;;;;;;;;;;;;;16.76;41.12;99282.25;4351320;32;35038;-86
2022/05/29 05:16:13;;;;;;;;;;;;;;;16.91;41.85;99286.81;4342455;33;34155;-84
2022/05/29 05:18:41;;;;;;;;;;;;;;;17.24;41.70;99287.03;4342737;32;34803;-85
2022/05/29 05:21:10;;;;;;;;;;;;;;;16.89;43.30;99290.44;4357499;32;32567;-85
2022/05/29 05:23:40;;;;;;;;;;;;;;;17.16;42.65;99281.31;4353855;32;35664;-85
2022/05/29 05:26:09;;;;;;;;;;;;;;;17.00;42.27;99285.56;4342223;33;35167;-85
2022/05/29 05:28:40;;;;;;;;;;;;;;;17.22;41.50;99281.00;4345193;33;34117;-84
2022/05/29 05:31:09;;;;;;;;;;;;;;;17.22;41.64;99274.94;4342959;33;32656;-85
2022/05/29 05:33:37;;;;;;;;;;;;;;;17.00;41.77;99275.91;4341168;33;33310;-85
2022/05/29 05:36:06;;;;;;;;;;;;;;;16.53;41.97;99275.44;4350638;32;34274;-84
2022/05/29 05:38:34;;;;;;;;;;;;;;;16.87;41.53;99280.03;4357287;32;34103;-85
2022/05/29 05:41:03;;;;;;;;;;;;;;;16.98;41.84;99282.16;4356594;32;33385;-85
2022/05/29 05:43:32;;;;;;;;;;;;;;;16.86;42.46;99283.56;4348252;32;33871;-85
2022/05/29 05:46:02;;;;;;;;;;;;;;;17.12;42.46;99273.66;4343688;33;34144;-84
2022/05/29 05:48:31;;;;;;;;;;;;;;;17.29;41.93;99276.34;4348066;33;34289;-85
2022/05/29 05:51:00;;;;;;;;;;;;;;;17.36;40.97;99276.91;4342425;33;33330;-86
2022/05/29 05:53:28;;;;;;;;;;;;;;;17.37;40.19;99273.34;4347048;32;33890;-84
2022/05/29 05:56:04;;;;;;;;;;;;;;;17.60;39.28;99273.09;4357147;32;34218;-86
2022/05/29 05:58:33;;;;;;;;;;;;;;;17.59;39.03;99267.91;4357038;32;34181;-85
2022/05/29 06:01:05;;;;;;;;;;;;;;;17.79;38.57;99262.56;4357182;32;33254;-84
2022/05/29 06:03:33;;;;;;;;;;;;;;;17.88;38.23;99264.75;4354294;32;33819;-85
2022/05/29 06:06:02;;;;;;;;;;;;;;;18.17;37.98;99272.94;4342303;33;34617;-85
2022/05/29 06:08:31;;;;;;;;;;;;;;;18.32;38.17;99272.13;4341995;32;34948;-86
2022/05/29 06:10:59;;;;;;;;;;;;;;;18.46;37.00;99262.69;4349487;32;32545;-86
2022/05/29 06:13:28;;;;;;;;;;;;;;;18.59;35.97;99266.38;4342127;32;33805;-86
2022/05/29 06:15:59;;;;;;;;;;;;;;;18.41;36.61;99265.56;4347590;33;34309;-84
2022/05/29 06:18:29;;;;;;;;;;;;;;;18.11;36.42;99265.34;4341832;33;34931;-85
2022/05/29 06:20:58;;;;;;;;;;;;;;;18.57;35.52;99264.75;4342230;33;33498;-86
2022/05/29 06:23:27;;;;;;;;;;;;;;;18.61;35.44;99263.66;4349817;32;34030;-85
2022/05/29 06:25:56;;;;;;;;;;;;;;;18.85;35.29;99275.53;4356776;32;33905;-85
2022/05/29 06:28:24;;;;;;;;;;;;;;;18.80;34.13;99258.28;4356715;32;33900;-85
2022/05/29 06:30:54;;;;;;;;;;;;;;;19.03;33.63;99262.31;4342120;32;33730;-86
2022/05/29 06:33:22;;;;;;;;;;;;;;;18.94;32.93;99268.91;4344654;32;32045;-86
2022/05/29 06:35:52;;;;;;;;;;;;;;;19.05;34.05;99269.19;4351463;32;34183;-87
2022/05/29 06:38:22;;;;;;;;;;;;;;;19.03;34.41;99270.19;4356626;32;34801;-86
2022/05/29 06:40:52;;;;;;;;;;;;;;;19.23;34.55;99267.31;4362113;32;32895;-86
2022/05/29 06:43:21;;;;;;;;;;;;;;;19.47;33.98;99286.13;4357085;32;34244;-86
2022/05/29 06:45:56;;;;;;;;;;;;;;;19.36;33.66;99270.97;4332035;32;785562;-86
2022/05/29 06:48:25;;;;;;;;;;;;;;;19.51;34.21;99266.59;4342151;32;33744;-86
2022/05/29 06:50:54;;;;;;;;;;;;;;;19.60;34.07;99265.25;4342248;33;33812;-86
2022/05/29 06:53:23;;;;;;;;;;;;;;;19.49;33.64;99268.47;4357431;32;33969;-85
2022/05/29 06:55:52;;;;;;;;;;;;;;;19.49;34.00;99271.09;4356986;32;34340;-85
2022/05/29 06:58:21;;;;;;;;;;;;;;;19.48;33.41;99269.41;4356673;32;34196;-85
2022/05/29 07:09:17;;;;;;;;;;;;;;;20.18;30.92;99271.56;4356726;32;33654;-85
2022/05/29 07:11:46;;;;;;;;;;;;;;;20.12;31.97;99262.22;4348615;32;33579;-84
2022/05/29 07:14:14;;;;;;;;;;;;;;;20.31;30.73;99261.97;4341677;33;33816;-84
2022/05/29 07:16:44;;;;;;;;;;;;;;;20.32;30.55;99261.06;4342025;33;33612;-85
2022/05/29 07:19:13;;;;;;;;;;;;;;;20.25;30.80;99265.00;4344573;32;33308;-86
2022/05/29 07:21:43;;;;;;;;;;;;;;;20.53;29.58;99258.06;4355928;32;33119;-85
2022/05/29 07:24:12;;;;;;;;;;;;;;;20.46;30.57;99263.72;4344433;32;34129;-86
2022/05/29 07:26:46;;;;;;;;;;;;;;;20.68;30.67;99262.41;4347214;33;33885;-87
2022/05/29 07:29:17;;;;;;;;;;;;;;;20.81;30.28;99255.44;4347359;32;32333;-86
2022/05/29 07:31:46;;;;;;;;;;;;;;;20.83;30.87;99256.19;4356839;32;33279;-85
2022/05/29 07:34:14;;;;;;;;;;;;;;;20.91;31.03;99252.22;4348934;32;34356;-86
2022/05/29 07:36:44;;;;;;;;;;;;;;;21.08;30.40;99252.84;4352450;32;34101;-85
2022/05/29 07:39:13;;;;;;;;;;;;;;;21.05;30.88;99246.94;4346956;33;33444;-85
2022/05/29 07:44:28;;;;;;;;;;;;;;;20.94;29.10;99244.97;4341460;33;34557;-87
2022/05/29 07:46:57;;;;;;;;;;;;;;;20.61;29.03;99242.62;4341461;33;34107;-85
2022/05/29 07:49:25;;;;;;;;;;;;;;;20.82;29.00;99246.56;4341094;32;34165;-85
2022/05/29 07:51:55;;;;;;;;;;;;;;;21.06;29.55;99238.91;4342962;32;32975;-86
2022/05/29 07:54:26;;;;;;;;;;;;;;;20.97;28.78;99236.00;4361671;32;34914;-84
2022/05/29 07:57:00;;;;;;;;;;;;;;;21.07;29.29;99234.50;4355483;32;34166;-85
2022/05/29 07:59:29;;;;;;;;;;;;;;;21.06;29.87;99230.16;4353671;32;33812;-85
2022/05/29 08:01:57;;;;;;;;;;;;;;;21.08;29.35;99237.03;4355686;32;34235;-84
2022/05/29 08:04:27;;;;;;;;;;;;;;;21.07;29.41;99239.78;4350537;32;33844;-86
2022/05/29 08:06:57;;;;;;;;;;;;;;;21.21;27.91;99229.16;4359472;32;34238;-86
2022/05/29 08:09:26;;;;;;;;;;;;;;;21.11;28.75;99230.69;4342047;32;33096;-85
2022/05/29 08:11:54;;;;;;;;;;;;;;;21.19;28.91;99232.84;4355235;32;33232;-86
2022/05/29 08:14:23;;;;;;;;;;;;;;;21.05;29.34;99233.75;4355338;32;34128;-85
2022/05/29 08:16:51;;;;;;;;;;;;;;;21.18;28.89;99233.81;4353041;32;34267;-86
2022/05/29 08:19:20;;;;;;;;;;;;;;;21.27;28.98;99223.50;4360376;32;34866;-85
2022/05/29 08:21:49;;;;;;;;;;;;;;;21.51;29.09;99223.72;4353469;32;32915;-85
2022/05/29 08:32:59;;;;;;;;;;;;;;;21.47;28.99;99216.94;4343250;33;33004;-86
2022/05/29 08:35:28;;;;;;;;;;;;;;;21.57;28.73;99219.00;4352330;32;34148;-87
2022/05/29 08:37:56;;;;;;;;;;;;;;;21.61;27.97;99215.22;4363401;32;34228;-84
2022/05/29 08:40:26;;;;;;;;;;;;;;;21.83;28.31;99211.97;4357805;32;34216;-86
2022/05/29 08:42:55;;;;;;;;;;;;;;;21.93;29.29;99213.88;4357164;32;32775;-86
2022/05/29 08:45:23;;;;;;;;;;;;;;;22.10;29.00;99204.81;4356975;32;34145;-85
2022/05/29 08:47:52;;;;;;;;;;;;;;;22.00;27.97;99211.69;4356908;32;34155;-86
2022/05/29 08:50:21;;;;;;;;;;;;;;;22.28;29.16;99208.03;4363085;32;33761;-85
2022/05/29 08:52:53;;;;;;;;;;;;;;;22.31;28.84;99209.59;4362235;32;34327;-86
2022/05/29 08:55:24;;;;;;;;;;;;;;;22.45;27.61;99204.22;4356610;32;34140;-85
2022/05/29 08:57:56;;;;;;;;;;;;;;;22.24;27.39;99206.53;4352800;32;34886;-85
2022/05/29 09:00:28;;;;;;;;;;;;;;;22.13;27.00;99199.34;4355708;32;34713;-86
2022/05/29 09:03:00;;;;;;;;;;;;;;;22.14;26.69;99200.16;4355467;32;33859;-86
2022/05/29 09:05:34;;;;;;;;;;;;;;;22.28;26.63;99207.19;4360242;32;34142;-85
2022/05/29 09:08:03;;;;;;;;;;;;;;;22.15;27.07;99205.31;4353155;32;34056;-87
2022/05/29 09:10:34;;;;;;;;;;;;;;;21.96;26.77;99207.53;4343293;33;34507;-87
2022/05/29 09:13:05;;;;;;;;;;;;;;;22.05;26.76;99212.19;4342735;33;33238;-86
2022/05/29 09:15:34;;;;;;;;;;;;;;;22.23;26.81;99204.00;4350331;32;34175;-86
2022/05/29 09:18:03;;;;;;;;;;;;;;;22.14;26.85;99203.66;4351943;32;34952;-86
2022/05/29 09:20:38;;;;;;;;;;;;;;;22.33;27.92;99202.44;4353686;32;34165;-85
2022/05/29 09:23:07;;;;;;;;;;;;;;;22.23;26.69;99196.94;4348267;32;33194;-87
2022/05/29 09:25:37;;;;;;;;;;;;;;;21.57;26.88;99201.34;4357019;32;34945;-85
2022/05/29 09:28:09;;;;;;;;;;;;;;;21.88;27.48;99194.03;4357269;32;34261;-87
2022/05/29 09:30:39;;;;;;;;;;;;;;;22.25;27.16;99188.88;4357156;32;34822;-87
2022/05/29 09:33:15;;;;;;;;;;;;;;;22.29;26.53;99193.00;4348989;32;33479;-85
2022/05/29 09:35:46;;;;;;;;;;;;;;;22.05;27.36;99191.06;4348806;32;34462;-85
2022/05/29 09:38:18;;;;;;;;;;;;;;;22.29;27.34;99187.72;4354633;32;33723;-86
2022/05/29 09:40:49;;;;;;;;;;;;;;;22.48;27.80;99187.28;4355798;32;35030;-85
2022/05/29 09:43:22;;;;;;;;;;;;;;;22.55;26.89;99186.75;4359630;32;32914;-87
2022/05/29 09:45:50;;;;;;;;;;;;;;;22.43;26.43;99187.59;4361936;32;34022;-86
2022/05/29 09:51:14;;;;;;;;;;;;;;;22.50;26.35;99182.75;4356931;32;33906;-87
2022/05/29 09:53:44;;;;;;;;;;;;;;;22.48;25.27;99182.00;4357350;32;32959;-85
2022/05/29 09:56:13;;;;;;;;;;;;;;;22.23;25.86;99177.56;4349552;32;34096;-85
2022/05/29 09:58:47;;;;;;;;;;;;;;;22.63;26.27;99175.63;4354136;32;34922;-87
2022/05/29 10:01:26;;;;;;;;;;;;;;;22.55;25.96;99175.31;4341009;33;32113;-87
2022/05/29 10:03:58;;;;;;;;;;;;;;;22.69;27.08;99174.31;4351918;32;33091;-88
2022/05/29 10:06:27;;;;;;;;;;;;;;;23.09;25.78;99180.25;4355893;32;34022;-88
2022/05/29 10:09:04;;;;;;;;;;;;;;;22.88;25.26;99180.00;4354601;32;35093;-87
2022/05/29 10:11:33;;;;;;;;;;;;;;;23.09;25.26;99172.31;4353787;32;33833;-88
2022/05/29 10:14:03;;;;;;;;;;;;;;;22.86;26.24;99168.69;4355705;32;34039;-86
2022/05/29 10:16:33;;;;;;;;;;;;;;;23.21;26.37;99176.72;4361390;32;34915;-86
2022/05/29 10:19:10;;;;;;;;;;;;;;;23.11;26.11;99166.94;4360761;32;33603;-85
2022/05/29 10:21:41;;;;;;;;;;;;;;;23.27;26.00;99170.13;4357019;32;34771;-88
2022/05/29 10:24:14;;;;;;;;;;;;;;;23.10;26.27;99173.16;4346129;32;34047;-87
2022/05/29 10:26:42;;;;;;;;;;;;;;;23.03;25.84;99166.62;4355207;32;34605;-85
2022/05/29 10:29:17;;;;;;;;;;;;;;;23.25;25.36;99156.16;4357079;32;34891;-86
2022/05/29 10:31:47;;;;;;;;;;;;;;;22.75;25.61;99158.88;4352570;32;34597;-86
2022/05/29 10:34:16;;;;;;;;;;;;;;;22.56;25.80;99156.69;4345729;32;33235;-87
2022/05/29 10:36:49;;;;;;;;;;;;;;;22.47;25.76;99157.38;4347068;32;34598;-85
2022/05/29 10:39:20;;;;;;;;;;;;;;;22.91;26.54;99158.62;4341623;33;34649;-86
2022/05/29 10:41:49;;;;;;;;;;;;;;;23.00;25.96;99158.00;4341507;33;34248;-86
2022/05/29 10:44:40;;;;;;;;;;;;;;;22.38;26.85;99152.72;4341592;33;32943;-86
2022/05/29 10:47:10;;;;;;;;;;;;;;;22.63;26.84;99149.19;4347375;33;34497;-85
2022/05/29 10:49:39;;;;;;;;;;;;;;;23.05;27.15;99151.50;4341701;33;34328;-86
2022/05/29 10:52:18;;;;;;;;;;;;;;;22.38;26.56;99158.03;4342107;33;34896;-86
2022/05/29 10:54:59;;;;;;;;;;;;;;;22.82;26.24;99155.78;4342256;33;32885;-87
2022/05/29 10:57:36;;;;;;;;;;;;;;;22.48;26.77;99139.72;4341331;33;33822;-87
2022/05/29 11:00:09;;;;;;;;;;;;;;;22.44;26.90;99144.34;4342003;32;34916;-86
2022/05/29 11:05:42;;;;;;;;;;;;;;;23.00;27.18;99143.88;4345840;32;33411;-87
2022/05/29 11:08:23;;;;;;;;;;;;;;;22.91;26.87;99142.75;4341271;33;34950;-87
2022/05/29 11:10:55;;;;;;;;;;;;;;;23.02;26.88;99149.06;4341837;33;34233;-86
2022/05/29 11:13:27;;;;;;;;;;;;;;;22.49;27.29;99136.09;4341955;33;33638;-87
2022/05/29 11:16:01;;;;;;;;;;;;;;;22.91;27.78;99145.38;4341893;32;33422;-86
2022/05/29 11:18:34;;;;;;;;;;;;;;;23.14;27.42;99142.88;4347114;33;33645;-86
2022/05/29 11:21:05;;;;;;;;;;;;;;;23.08;27.06;99146.00;4342896;33;34641;-85
2022/05/29 11:23:37;;;;;;;;;;;;;;;22.96;26.27;99140.59;4340531;33;32679;-88
2022/05/29 11:26:08;;;;;;;;;;;;;;;23.03;27.21;99130.47;4341554;33;33524;-87
2022/05/29 11:28:45;;;;;;;;;;;;;;;22.84;26.88;99130.94;4341580;33;33290;-87
2022/05/29 11:31:18;;;;;;;;;;;;;;;23.09;27.82;99122.06;4344214;33;34460;-87
2022/05/29 11:33:52;;;;;;;;;;;;;;;23.42;27.15;99121.34;4347184;32;34159;-88
2022/05/29 11:36:24;;;;;;;;;;;;;;;23.78;26.32;99116.87;4355175;32;33392;-87
2022/05/29 11:39:11;;;;;;;;;;;;;;;23.72;26.93;99116.47;4342620;32;34068;-87
2022/05/29 11:41:40;;;;;;;;;;;;;;;23.60;25.96;99123.53;4341443;32;33896;-86
2022/05/29 11:44:25;;;;;;;;;;;;;;;23.39;26.11;99118.94;4341648;33;33883;-87
2022/05/29 11:52:32;;;;;;;;;;;;;;;23.14;27.32;99109.31;4341398;33;34065;-86
2022/05/29 11:55:02;;;;;;;;;;;;;;;23.09;26.87;99108.81;4346812;33;34310;-86
2022/05/29 11:57:33;;;;;;;;;;;;;;;23.14;27.68;99111.13;4341803;33;33479;-86
2022/05/29 12:00:04;;;;;;;;;;;;;;;23.46;26.37;99113.16;4341438;33;33683;-87
2022/05/29 12:02:47;;;;;;;;;;;;;;;22.77;26.72;99100.59;4342708;33;34269;-86
2022/05/29 12:05:25;;;;;;;;;;;;;;;23.16;26.51;99106.56;4343255;33;33446;-86
2022/05/29 12:07:55;;;;;;;;;;;;;;;23.23;25.92;99105.16;4350572;32;34010;-86
2022/05/29 12:10:27;;;;;;;;;;;;;;;23.23;26.83;99099.88;4348253;33;32836;-87
2022/05/29 12:12:57;;;;;;;;;;;;;;;23.36;26.61;99100.63;4343026;33;33579;-87
2022/05/29 12:15:26;;;;;;;;;;;;;;;23.14;26.58;99100.53;4348789;32;34109;-86
2022/05/29 12:18:03;;;;;;;;;;;;;;;22.94;25.82;99099.34;4347605;32;32972;-87
2022/05/29 12:20:35;;;;;;;;;;;;;;;22.99;26.25;99095.44;4342913;33;33835;-87
2022/05/29 12:23:04;;;;;;;;;;;;;;;23.26;26.82;99090.84;4345711;32;35196;-86
2022/05/29 12:25:34;;;;;;;;;;;;;;;23.01;27.14;99095.34;4362809;32;33022;-87
2022/05/29 12:28:03;;;;;;;;;;;;;;;22.92;27.21;99088.88;4357691;32;33208;-88
2022/05/29 12:30:34;;;;;;;;;;;;;;;23.27;26.67;99093.41;4357934;32;34854;-86
2022/05/29 12:33:09;;;;;;;;;;;;;;;23.29;26.61;99087.97;4357606;32;33858;-86
2022/05/29 12:35:38;;;;;;;;;;;;;;;23.26;26.71;99091.69;4358177;32;34283;-85
2022/05/29 12:38:09;;;;;;;;;;;;;;;23.60;26.12;99091.78;4360044;32;32304;-87
2022/05/29 12:40:53;;;;;;;;;;;;;;;23.59;26.01;99092.75;4345288;32;34860;-86
2022/05/29 12:43:41;;;;;;;;;;;;;;;23.46;26.41;99092.81;4342676;33;34199;-86
2022/05/29 12:46:13;;;;;;;;;;;;;;;23.36;26.80;99097.12;4343127;33;34241;-86
2022/05/29 12:48:59;;;;;;;;;;;;;;;22.98;27.51;99092.91;4342897;33;33384;-86
2022/05/29 12:51:33;;;;;;;;;;;;;;;23.26;27.03;99093.50;4342792;32;33994;-86
2022/05/29 12:54:30;;;;;;;;;;;;;;;23.33;27.19;99105.31;4345513;32;34230;-86
2022/05/29 12:57:03;;;;;;;;;;;;;;;23.18;27.09;99091.44;4356191;32;34331;-85
2022/05/29 12:59:55;;;;;;;;;;;;;;;23.13;27.91;99101.50;4363296;32;33121;-88
2022/05/29 13:02:27;;;;;;;;;;;;;;;23.16;27.43;99090.69;4350245;32;32264;-87
2022/05/29 13:05:18;;;;;;;;;;;;;;;23.00;27.27;99088.34;4357697;32;34688;-86
2022/05/29 13:07:55;;;;;;;;;;;;;;;22.71;27.34;99088.66;4358102;32;34351;-86
2022/05/29 13:10:25;;;;;;;;;;;;;;;22.82;27.74;99094.97;4357604;32;33582;-86
2022/05/29 13:12:55;;;;;;;;;;;;;;;22.75;27.51;99100.69;4357403;32;33532;-86
2022/05/29 13:15:30;;;;;;;;;;;;;;;22.63;27.74;99098.94;4360423;32;33781;-85
2022/05/29 13:18:00;;;;;;;;;;;;;;;22.67;27.46;99099.59;4362791;32;33987;-87
2022/05/29 13:20:28;;;;;;;;;;;;;;;22.67;27.13;99099.59;4357434;32;33242;-86
2022/05/29 13:22:59;;;;;;;;;;;;;;;22.57;27.63;99105.53;4359914;32;34285;-86
2022/05/29 13:25:28;;;;;;;;;;;;;;;22.56;27.94;99101.19;4357377;32;34330;-85
2022/05/29 13:27:57;;;;;;;;;;;;;;;22.51;27.88;99095.38;4357288;32;34652;-86
2022/05/29 13:30:44;;;;;;;;;;;;;;;22.38;28.19;99089.31;4363203;32;33926;-86
2022/05/29 13:33:31;;;;;;;;;;;;;;;22.33;27.47;99088.78;4351860;32;35456;-86
2022/05/29 13:36:00;;;;;;;;;;;;;;;22.24;28.46;99089.44;4356475;32;33088;-87
2022/05/29 13:38:47;;;;;;;;;;;;;;;22.26;27.52;99092.81;4353195;32;33685;-86
2022/05/29 13:41:26;;;;;;;;;;;;;;;22.34;27.58;99091.31;4350153;32;33178;-86
2022/05/29 13:43:55;;;;;;;;;;;;;;;22.43;27.74;99071.31;4354783;32;33730;-86
2022/05/29 13:46:25;;;;;;;;;;;;;;;22.36;26.62;99073.53;4357416;32;34428;-86